Time;durP1;ratioP1;P1;durP2;ratioP2;P2;SDS_P1;SDS_P2;PMS_P1;PMS_P2;Temp;Humidity;BMP_temperature;BMP_pressure;BME280_temperature;BME280_humidity;BME280_pressure;Samples;Min_cycle;Max_cycle;Signal;HPM_P1;HPM_P2
2023/06/14 00:01:13;;;;;;;13.98;6.70;;;;;;;;;;5022063;28;20041;-66
2023/06/14 00:03:40;;;;;;;14.10;5.75;;;;;;;;;;5021390;28;20052;-65
2023/06/14 00:06:07;;;;;;;11.00;6.20;;;;;;;;;;5020362;28;20089;-60
2023/06/14 00:08:33;;;;;;;12.60;6.20;;;;;;;;;;5018889;28;20046;-65
2023/06/14 00:11:00;;;;;;;13.10;5.97;;;;;;;;;;5020739;28;20076;-63
2023/06/14 00:13:27;;;;;;;13.23;5.53;;;;;;;;;;5019212;28;20860;-65
2023/06/14 00:15:54;;;;;;;10.43;6.35;;;;;;;;;;5001698;28;20044;-60
2023/06/14 00:18:23;;;;;;;9.60;5.50;;;;;;;;;;5016674;28;20045;-62
2023/06/14 00:20:51;;;;;;;10.48;5.82;;;;;;;;;;5001869;28;20051;-63
2023/06/14 00:23:19;;;;;;;11.57;5.65;;;;;;;;;;5019689;28;20029;-61
2023/06/14 00:25:45;;;;;;;14.70;5.32;;;;;;;;;;5018160;28;21050;-62
2023/06/14 00:28:12;;;;;;;8.50;5.00;;;;;;;;;;5018665;28;20037;-60
2023/06/14 00:30:39;;;;;;;10.45;5.20;;;;;;;;;;5019248;28;21493;-61
2023/06/14 00:33:06;;;;;;;10.90;5.50;;;;;;;;;;4999989;28;20465;-62
2023/06/14 00:35:36;;;;;;;13.27;5.82;;;;;;;;;;5018397;28;20046;-63
2023/06/14 00:38:02;;;;;;;10.95;5.50;;;;;;;;;;5001694;28;20076;-59
2023/06/14 00:40:29;;;;;;;10.38;5.47;;;;;;;;;;5018740;28;20464;-60
2023/06/14 00:42:56;;;;;;;15.10;5.85;;;;;;;;;;5019702;28;20044;-63
2023/06/14 00:45:23;;;;;;;9.38;5.43;;;;;;;;;;5018081;28;20497;-61
2023/06/14 00:47:52;;;;;;;10.18;5.80;;;;;;;;;;5020384;28;20052;-61
2023/06/14 00:50:20;;;;;;;15.63;6.22;;;;;;;;;;5018706;28;20111;-62
2023/06/14 00:52:47;;;;;;;12.88;6.32;;;;;;;;;;5018361;28;20697;-62
2023/06/14 00:55:14;;;;;;;10.25;6.07;;;;;;;;;;5001207;28;20025;-64
2023/06/14 00:57:41;;;;;;;9.63;5.60;;;;;;;;;;5009037;28;20045;-62
2023/06/14 01:00:09;;;;;;;11.07;6.38;;;;;;;;;;5018970;28;20095;-60
2023/06/14 01:02:39;;;;;;;10.60;5.80;;;;;;;;;;5021032;28;20634;-62
2023/06/14 01:05:07;;;;;;;11.30;5.93;;;;;;;;;;5020700;28;20871;-62
2023/06/14 01:07:52;;;;;;;12.80;5.63;;;;;;;;;;5020837;28;20075;-59
2023/06/14 01:10:25;;;;;;;12.95;6.00;;;;;;;;;;5021854;28;20631;-61
2023/06/14 01:12:55;;;;;;;10.10;5.60;;;;;;;;;;5019861;28;20049;-63
2023/06/14 01:15:22;;;;;;;12.52;6.32;;;;;;;;;;5008250;28;20053;-62
2023/06/14 01:17:51;;;;;;;10.82;6.07;;;;;;;;;;5005709;28;20072;-61
2023/06/14 01:20:18;;;;;;;11.40;6.07;;;;;;;;;;5006214;28;20521;-60
2023/06/14 01:22:54;;;;;;;11.50;5.43;;;;;;;;;;5003911;28;20184;-61
2023/06/14 01:25:25;;;;;;;14.25;6.78;;;;;;;;;;5003779;28;20048;-63
2023/06/14 01:27:57;;;;;;;16.50;6.13;;;;;;;;;;5004666;28;20041;-61
2023/06/14 01:30:25;;;;;;;11.25;5.60;;;;;;;;;;5005370;28;20041;-61
2023/06/14 01:32:53;;;;;;;15.65;6.22;;;;;;;;;;5004927;28;20044;-59
2023/06/14 01:35:20;;;;;;;9.68;6.22;;;;;;;;;;5005975;28;21135;-61
2023/06/14 01:37:48;;;;;;;11.45;5.68;;;;;;;;;;5004888;28;20076;-64
2023/06/14 01:40:16;;;;;;;8.88;5.32;;;;;;;;;;5005576;28;20505;-62
2023/06/14 01:42:43;;;;;;;14.25;5.65;;;;;;;;;;5005818;28;20033;-62
2023/06/14 01:45:10;;;;;;;9.73;5.38;;;;;;;;;;5009106;28;21103;-60
2023/06/14 01:47:37;;;;;;;14.13;5.82;;;;;;;;;;5008653;28;20099;-63
2023/06/14 01:50:04;;;;;;;10.20;5.30;;;;;;;;;;5009432;28;20552;-62
2023/06/14 01:52:31;;;;;;;8.15;5.03;;;;;;;;;;5008543;28;20044;-62
2023/06/14 01:54:58;;;;;;;10.80;5.53;;;;;;;;;;5007226;28;20037;-62
2023/06/14 01:57:26;;;;;;;11.43;4.80;;;;;;;;;;5007173;28;20041;-61
2023/06/14 01:59:53;;;;;;;10.18;5.55;;;;;;;;;;4991066;28;20040;-62
2023/06/14 02:02:20;;;;;;;9.55;4.88;;;;;;;;;;5004093;28;20147;-62
2023/06/14 02:04:47;;;;;;;9.25;4.35;;;;;;;;;;5005677;28;20037;-61
2023/06/14 02:07:14;;;;;;;11.35;4.82;;;;;;;;;;5007184;28;21012;-59
2023/06/14 02:09:43;;;;;;;7.35;4.35;;;;;;;;;;4989238;28;20139;-59
2023/06/14 02:12:11;;;;;;;7.32;4.53;;;;;;;;;;5007561;28;20052;-61
2023/06/14 02:14:38;;;;;;;7.85;4.50;;;;;;;;;;5005631;28;20802;-61
2023/06/14 02:17:06;;;;;;;7.72;4.40;;;;;;;;;;5007615;28;20107;-60
2023/06/14 02:19:33;;;;;;;8.75;4.53;;;;;;;;;;5005053;28;20148;-60
2023/06/14 02:22:00;;;;;;;10.23;4.90;;;;;;;;;;5006832;28;20044;-62
2023/06/14 02:24:27;;;;;;;6.78;4.00;;;;;;;;;;5003590;28;20454;-60
2023/06/14 02:26:53;;;;;;;10.30;3.28;;;;;;;;;;5009328;28;20108;-61
2023/06/14 02:29:20;;;;;;;7.55;2.63;;;;;;;;;;5009821;28;20120;-59
2023/06/14 02:31:48;;;;;;;5.40;2.70;;;;;;;;;;5009544;28;20049;-61
2023/06/14 02:34:16;;;;;;;7.97;2.83;;;;;;;;;;5007675;28;20030;-60
2023/06/14 02:36:43;;;;;;;5.85;3.10;;;;;;;;;;5007954;28;20038;-63
2023/06/14 02:39:10;;;;;;;7.22;2.90;;;;;;;;;;5009319;28;20037;-61
2023/06/14 02:41:37;;;;;;;6.05;2.60;;;;;;;;;;5008721;28;20056;-59
2023/06/14 02:44:04;;;;;;;5.82;2.90;;;;;;;;;;5006479;28;20389;-60
2023/06/14 02:46:31;;;;;;;5.18;2.70;;;;;;;;;;5007198;28;20152;-60
2023/06/14 02:48:57;;;;;;;7.97;2.88;;;;;;;;;;5009112;28;20041;-61
2023/06/14 02:51:24;;;;;;;5.10;2.33;;;;;;;;;;5007127;28;20052;-60
2023/06/14 02:53:51;;;;;;;6.00;2.83;;;;;;;;;;5007325;28;20042;-60
2023/06/14 02:56:19;;;;;;;5.72;2.78;;;;;;;;;;5007108;28;22314;-64
2023/06/14 02:58:46;;;;;;;7.68;2.92;;;;;;;;;;5007638;28;20061;-61
2023/06/14 03:01:12;;;;;;;7.97;2.88;;;;;;;;;;5006461;28;20128;-61
2023/06/14 03:03:39;;;;;;;5.50;2.80;;;;;;;;;;5006765;28;20173;-62
2023/06/14 03:06:08;;;;;;;5.65;2.78;;;;;;;;;;5009417;28;20057;-61
2023/06/14 03:08:38;;;;;;;5.80;2.83;;;;;;;;;;5008980;28;20156;-60
2023/06/14 03:11:05;;;;;;;5.32;2.55;;;;;;;;;;5006780;28;20076;-61
2023/06/14 03:13:33;;;;;;;5.35;3.03;;;;;;;;;;5006099;28;20155;-60
2023/06/14 03:16:02;;;;;;;6.35;3.00;;;;;;;;;;5006135;28;20083;-60
2023/06/14 03:18:30;;;;;;;5.43;2.80;;;;;;;;;;5008264;28;20135;-61
2023/06/14 03:20:58;;;;;;;6.93;2.72;;;;;;;;;;5009662;28;20040;-60
2023/06/14 03:23:25;;;;;;;6.13;2.80;;;;;;;;;;5007745;28;20052;-60
2023/06/14 03:25:52;;;;;;;6.72;3.13;;;;;;;;;;5008339;28;20147;-60
2023/06/14 03:28:18;;;;;;;5.60;3.30;;;;;;;;;;4992221;28;20101;-59
2023/06/14 03:30:45;;;;;;;6.20;3.03;;;;;;;;;;5008360;28;20195;-60
2023/06/14 03:33:12;;;;;;;7.78;3.15;;;;;;;;;;5009334;28;20053;-59
2023/06/14 03:35:39;;;;;;;6.22;3.10;;;;;;;;;;5007181;28;20076;-63
2023/06/14 03:38:06;;;;;;;6.03;2.90;;;;;;;;;;5007666;28;20053;-61
2023/06/14 03:40:33;;;;;;;4.53;2.47;;;;;;;;;;5007004;28;20045;-60
2023/06/14 03:43:00;;;;;;;5.25;2.83;;;;;;;;;;5009040;28;20048;-63
2023/06/14 03:45:26;;;;;;;8.68;2.97;;;;;;;;;;5007000;28;20136;-58
2023/06/14 03:47:54;;;;;;;7.45;2.92;;;;;;;;;;5009052;28;20114;-64
2023/06/14 03:50:21;;;;;;;6.35;3.20;;;;;;;;;;5008494;28;20056;-63
2023/06/14 03:52:50;;;;;;;5.90;2.60;;;;;;;;;;5007267;28;20049;-63
2023/06/14 03:55:17;;;;;;;5.85;2.95;;;;;;;;;;5007031;28;20034;-63
2023/06/14 03:57:43;;;;;;;6.00;3.00;;;;;;;;;;5008770;28;20040;-64
2023/06/14 04:00:12;;;;;;;6.35;3.08;;;;;;;;;;5010870;28;20046;-64
2023/06/14 04:02:39;;;;;;;6.82;2.90;;;;;;;;;;5010202;28;20836;-63
2023/06/14 04:05:08;;;;;;;5.55;2.50;;;;;;;;;;5006176;28;20069;-64
2023/06/14 04:07:39;;;;;;;4.97;2.67;;;;;;;;;;5005997;28;20049;-63
2023/06/14 04:10:07;;;;;;;5.05;1.90;;;;;;;;;;5007866;28;20044;-63
2023/06/14 04:12:34;;;;;;;4.75;2.22;;;;;;;;;;5006971;28;20049;-63
2023/06/14 04:15:01;;;;;;;5.85;2.38;;;;;;;;;;5008377;28;20101;-64
2023/06/14 04:17:28;;;;;;;4.63;2.10;;;;;;;;;;5009638;28;20045;-64
2023/06/14 04:19:55;;;;;;;4.50;2.33;;;;;;;;;;4991470;28;20801;-63
2023/06/14 04:22:21;;;;;;;5.05;2.40;;;;;;;;;;5006299;28;20671;-64
2023/06/14 04:24:49;;;;;;;5.15;2.40;;;;;;;;;;4988240;28;20151;-64
2023/06/14 04:27:21;;;;;;;5.18;2.38;;;;;;;;;;5005400;28;20148;-64
2023/06/14 04:29:53;;;;;;;5.78;2.20;;;;;;;;;;5007562;28;20453;-63
2023/06/14 04:32:21;;;;;;;5.03;2.03;;;;;;;;;;5008650;28;20635;-64
2023/06/14 04:34:48;;;;;;;5.00;1.90;;;;;;;;;;5005515;28;20045;-64
2023/06/14 04:37:15;;;;;;;3.63;1.35;;;;;;;;;;5008688;28;20503;-62
2023/06/14 04:39:42;;;;;;;2.80;0.90;;;;;;;;;;5007102;28;20954;-64
2023/06/14 04:42:11;;;;;;;3.28;0.90;;;;;;;;;;5006384;28;20088;-62
2023/06/14 04:44:39;;;;;;;2.35;0.80;;;;;;;;;;5006707;28;20041;-63
2023/06/14 04:47:06;;;;;;;2.25;0.70;;;;;;;;;;5007492;28;20349;-64
2023/06/14 04:49:34;;;;;;;2.75;0.80;;;;;;;;;;5007609;28;20554;-63
2023/06/14 04:52:01;;;;;;;1.55;0.60;;;;;;;;;;5007047;28;20037;-64
2023/06/14 04:54:31;;;;;;;3.45;0.70;;;;;;;;;;4990731;28;20029;-63
2023/06/14 04:56:58;;;;;;;1.65;0.60;;;;;;;;;;5008601;28;20076;-64
2023/06/14 04:59:24;;;;;;;4.28;0.90;;;;;;;;;;5008876;28;20156;-65
2023/06/14 05:01:53;;;;;;;5.18;0.70;;;;;;;;;;5007930;28;20119;-63
2023/06/14 05:04:22;;;;;;;2.33;0.70;;;;;;;;;;5006485;28;20049;-61
2023/06/14 05:06:49;;;;;;;2.70;0.93;;;;;;;;;;5006082;28;20057;-61
2023/06/14 05:09:16;;;;;;;3.45;0.90;;;;;;;;;;5007746;28;20379;-64
2023/06/14 05:11:43;;;;;;;4.18;1.00;;;;;;;;;;5014731;28;20069;-64
2023/06/14 05:14:11;;;;;;;3.33;0.90;;;;;;;;;;5001802;28;20457;-63
2023/06/14 05:16:39;;;;;;;6.25;1.05;;;;;;;;;;5019769;28;20049;-63
2023/06/14 05:19:05;;;;;;;6.75;0.98;;;;;;;;;;5017928;28;20596;-64
2023/06/14 05:21:34;;;;;;;2.53;0.75;;;;;;;;;;5017966;28;20466;-63
2023/06/14 05:24:01;;;;;;;2.53;0.82;;;;;;;;;;5019032;28;20091;-65
2023/06/14 05:26:28;;;;;;;3.28;0.90;;;;;;;;;;4993531;28;20072;-64
2023/06/14 05:29:00;;;;;;;2.72;1.05;;;;;;;;;;5020095;28;20175;-63
2023/06/14 05:31:27;;;;;;;3.88;1.30;;;;;;;;;;5021538;28;20029;-63
2023/06/14 05:33:55;;;;;;;5.05;1.65;;;;;;;;;;5037123;28;20029;-65
2023/06/14 05:36:23;;;;;;;3.70;1.50;;;;;;;;;;5034993;28;20059;-63
2023/06/14 05:38:51;;;;;;;5.05;1.73;;;;;;;;;;5047918;28;20048;-62
2023/06/14 05:41:18;;;;;;;4.68;1.80;;;;;;;;;;5010259;28;20038;-63
2023/06/14 05:43:45;;;;;;;5.03;1.70;;;;;;;;;;5022739;28;20041;-64
2023/06/14 05:46:12;;;;;;;4.45;1.95;;;;;;;;;;5021604;28;20049;-65
2023/06/14 05:48:39;;;;;;;5.82;1.75;;;;;;;;;;5019879;28;20068;-64
2023/06/14 05:51:08;;;;;;;4.60;1.95;;;;;;;;;;5022168;28;20064;-65
2023/06/14 05:53:35;;;;;;;6.35;2.20;;;;;;;;;;5020091;28;20084;-62
2023/06/14 05:56:02;;;;;;;5.50;2.03;;;;;;;;;;5002562;28;21820;-62
2023/06/14 05:58:29;;;;;;;4.05;1.85;;;;;;;;;;5019371;28;20494;-61
2023/06/14 06:00:57;;;;;;;4.57;1.92;;;;;;;;;;4994276;28;20041;-63
2023/06/14 06:03:24;;;;;;;5.28;1.55;;;;;;;;;;5021474;28;20033;-62
2023/06/14 06:05:50;;;;;;;7.30;1.90;;;;;;;;;;5025417;28;20060;-61
2023/06/14 06:08:17;;;;;;;3.92;1.60;;;;;;;;;;5024421;28;20129;-63
2023/06/14 06:10:45;;;;;;;3.78;1.60;;;;;;;;;;5021686;28;20042;-60
2023/06/14 06:13:12;;;;;;;4.32;1.75;;;;;;;;;;5021783;28;20107;-63
2023/06/14 06:15:39;;;;;;;3.90;1.52;;;;;;;;;;5021950;28;20037;-63
2023/06/14 06:18:06;;;;;;;4.88;1.88;;;;;;;;;;5019223;28;20033;-62
2023/06/14 06:20:33;;;;;;;4.78;1.83;;;;;;;;;;5019030;28;20498;-63
2023/06/14 06:23:00;;;;;;;4.28;2.00;;;;;;;;;;5020144;28;20044;-60
2023/06/14 06:25:27;;;;;;;4.43;2.15;;;;;;;;;;5001857;28;20045;-63
2023/06/14 06:27:56;;;;;;;4.63;1.95;;;;;;;;;;5003323;28;20037;-63
2023/06/14 06:30:23;;;;;;;4.50;1.90;;;;;;;;;;5004928;28;20630;-63
2023/06/14 06:32:50;;;;;;;5.05;2.00;;;;;;;;;;5025485;28;20044;-63
2023/06/14 06:35:17;;;;;;;4.38;1.90;;;;;;;;;;5025058;28;20145;-62
2023/06/14 06:37:44;;;;;;;4.38;1.90;;;;;;;;;;5005561;28;20133;-64
2023/06/14 06:40:12;;;;;;;6.85;2.55;;;;;;;;;;5025022;28;20044;-63
2023/06/14 06:42:39;;;;;;;7.80;2.33;;;;;;;;;;5014056;28;20068;-62
2023/06/14 06:45:06;;;;;;;6.03;2.47;;;;;;;;;;5004364;28;20041;-62
2023/06/14 06:47:33;;;;;;;6.70;2.40;;;;;;;;;;5008598;28;20473;-63
2023/06/14 06:50:00;;;;;;;7.40;2.72;;;;;;;;;;5023274;28;20540;-62
2023/06/14 06:52:26;;;;;;;7.13;3.20;;;;;;;;;;5004784;28;20041;-63
2023/06/14 06:54:55;;;;;;;9.25;3.40;;;;;;;;;;5021120;28;20057;-63
2023/06/14 06:57:22;;;;;;;6.50;3.28;;;;;;;;;;5019986;28;20048;-64
2023/06/14 06:59:49;;;;;;;6.07;3.33;;;;;;;;;;5019454;28;20807;-63
2023/06/14 07:02:17;;;;;;;6.63;3.38;;;;;;;;;;5021834;28;20924;-63
2023/06/14 07:04:44;;;;;;;8.48;3.60;;;;;;;;;;5020924;28;20619;-63
2023/06/14 07:07:11;;;;;;;8.85;3.40;;;;;;;;;;5023977;28;20049;-64
2023/06/14 07:09:38;;;;;;;7.50;3.80;;;;;;;;;;5005063;28;20355;-61
2023/06/14 07:12:05;;;;;;;9.50;4.03;;;;;;;;;;5021752;28;20041;-61
2023/06/14 07:14:32;;;;;;;8.30;3.92;;;;;;;;;;5020822;28;20195;-62
2023/06/14 07:16:58;;;;;;;7.40;4.00;;;;;;;;;;5005141;28;20068;-60
2023/06/14 07:19:26;;;;;;;6.78;3.58;;;;;;;;;;5020765;28;20037;-62
2023/06/14 07:21:52;;;;;;;7.95;3.80;;;;;;;;;;5005412;28;20038;-62
2023/06/14 07:24:21;;;;;;;7.28;3.60;;;;;;;;;;5003591;28;20058;-62
2023/06/14 07:26:51;;;;;;;6.82;3.85;;;;;;;;;;5023040;28;20374;-61
2023/06/14 07:29:17;;;;;;;6.93;3.60;;;;;;;;;;5014407;28;20041;-60
2023/06/14 07:31:44;;;;;;;7.68;3.95;;;;;;;;;;5022929;28;20122;-61
2023/06/14 07:34:11;;;;;;;8.05;3.70;;;;;;;;;;5023919;28;20584;-64
2023/06/14 07:36:38;;;;;;;6.85;3.72;;;;;;;;;;5000108;28;20047;-62
2023/06/14 07:39:06;;;;;;;8.30;4.22;;;;;;;;;;5022560;28;20049;-60
2023/06/14 07:41:33;;;;;;;10.65;4.13;;;;;;;;;;5022190;28;20112;-63
2023/06/14 07:44:00;;;;;;;6.75;3.80;;;;;;;;;;5023027;28;20132;-64
2023/06/14 07:46:26;;;;;;;8.23;4.30;;;;;;;;;;5003549;28;20048;-61
2023/06/14 07:48:53;;;;;;;7.45;4.32;;;;;;;;;;5021665;28;20048;-64
2023/06/14 07:51:21;;;;;;;9.48;4.82;;;;;;;;;;5022933;28;20088;-63
2023/06/14 07:53:49;;;;;;;9.95;4.90;;;;;;;;;;5019146;28;20903;-61
2023/06/14 07:56:16;;;;;;;7.60;4.63;;;;;;;;;;5022853;28;20030;-61
2023/06/14 07:58:42;;;;;;;9.48;4.97;;;;;;;;;;5023640;28;20122;-61
2023/06/14 08:01:10;;;;;;;10.25;5.38;;;;;;;;;;5024692;28;20751;-63
2023/06/14 08:03:36;;;;;;;11.50;5.60;;;;;;;;;;5021884;28;20041;-63
2023/06/14 08:06:04;;;;;;;9.32;5.45;;;;;;;;;;5024235;28;20045;-63
2023/06/14 08:08:30;;;;;;;9.32;4.78;;;;;;;;;;5022051;28;20042;-63
2023/06/14 08:10:57;;;;;;;10.65;5.22;;;;;;;;;;5003990;28;20044;-61
2023/06/14 08:13:24;;;;;;;10.55;5.15;;;;;;;;;;5020718;28;20037;-61
2023/06/14 08:15:51;;;;;;;11.30;5.25;;;;;;;;;;5019389;28;20033;-60
2023/06/14 08:18:18;;;;;;;10.10;5.07;;;;;;;;;;5021906;28;20394;-63
2023/06/14 08:20:44;;;;;;;10.95;5.28;;;;;;;;;;5021805;28;20041;-63
2023/06/14 08:23:11;;;;;;;10.63;5.45;;;;;;;;;;5022686;28;20041;-63
2023/06/14 08:25:38;;;;;;;8.32;5.05;;;;;;;;;;5020034;28;20053;-62
2023/06/14 08:28:05;;;;;;;9.70;5.20;;;;;;;;;;5019726;28;20053;-62
2023/06/14 08:30:31;;;;;;;9.20;5.10;;;;;;;;;;5021342;28;20037;-61
2023/06/14 08:32:58;;;;;;;10.20;5.32;;;;;;;;;;5023662;28;20045;-62
2023/06/14 08:35:25;;;;;;;10.27;5.47;;;;;;;;;;5021154;28;20025;-63
2023/06/14 08:37:52;;;;;;;9.73;5.15;;;;;;;;;;5022110;28;20932;-60
2023/06/14 08:40:19;;;;;;;10.55;5.40;;;;;;;;;;5022138;28;20129;-62
2023/06/14 08:42:46;;;;;;;9.93;5.15;;;;;;;;;;5020243;28;20951;-63
2023/06/14 08:45:13;;;;;;;8.40;5.15;;;;;;;;;;5020115;28;20461;-62
2023/06/14 08:47:41;;;;;;;10.05;5.47;;;;;;;;;;5012036;28;20061;-63
2023/06/14 08:50:09;;;;;;;9.02;5.20;;;;;;;;;;5019603;28;20520;-61
2023/06/14 08:52:50;;;;;;;10.75;5.40;;;;;;;;;;5019258;28;20038;-63
2023/06/14 08:55:17;;;;;;;10.18;5.70;;;;;;;;;;5020746;28;20064;-61
2023/06/14 08:57:45;;;;;;;12.00;5.63;;;;;;;;;;5021112;28;20387;-61
2023/06/14 09:00:14;;;;;;;13.23;5.53;;;;;;;;;;5021523;28;20037;-62
2023/06/14 09:02:43;;;;;;;11.65;5.85;;;;;;;;;;5019301;28;20033;-61
2023/06/14 09:05:18;;;;;;;11.13;5.38;;;;;;;;;;5019927;28;20884;-61
2023/06/14 09:07:45;;;;;;;11.07;5.60;;;;;;;;;;5018253;28;20045;-62
2023/06/14 09:10:13;;;;;;;11.30;5.50;;;;;;;;;;5020874;28;20080;-59
2023/06/14 09:12:40;;;;;;;10.13;5.60;;;;;;;;;;5023887;28;20045;-61
2023/06/14 09:15:08;;;;;;;9.70;5.75;;;;;;;;;;5023968;28;20040;-60
2023/06/14 09:17:35;;;;;;;10.45;5.68;;;;;;;;;;5020393;28;20057;-62
2023/06/14 09:20:06;;;;;;;12.43;6.47;;;;;;;;;;5023089;28;20049;-61
2023/06/14 09:22:33;;;;;;;10.35;5.68;;;;;;;;;;5020249;28;20097;-61
2023/06/14 09:25:00;;;;;;;10.18;5.90;;;;;;;;;;5021137;28;20088;-61
2023/06/14 09:27:27;;;;;;;10.93;6.13;;;;;;;;;;5019202;28;20188;-61
2023/06/14 09:29:54;;;;;;;11.00;6.15;;;;;;;;;;5021672;28;20084;-61
2023/06/14 09:32:22;;;;;;;11.80;6.25;;;;;;;;;;5020590;28;20044;-63
2023/06/14 09:34:48;;;;;;;11.55;5.95;;;;;;;;;;5002927;28;20041;-62
2023/06/14 09:37:31;;;;;;;12.45;6.90;;;;;;;;;;5004171;28;20125;-61
2023/06/14 09:39:58;;;;;;;13.35;6.60;;;;;;;;;;5016808;28;20050;-62
2023/06/14 09:42:25;;;;;;;11.15;6.40;;;;;;;;;;5002137;28;20389;-61
2023/06/14 09:44:53;;;;;;;11.27;6.93;;;;;;;;;;5018610;28;20040;-61
2023/06/14 09:47:20;;;;;;;12.27;7.20;;;;;;;;;;5021289;28;20053;-60
2023/06/14 09:49:48;;;;;;;11.75;6.93;;;;;;;;;;5019306;28;20417;-62
2023/06/14 09:52:18;;;;;;;12.70;7.43;;;;;;;;;;5021535;28;20480;-63
2023/06/14 09:54:46;;;;;;;12.32;7.85;;;;;;;;;;5020554;28;20037;-60
2023/06/14 09:57:23;;;;;;;16.63;8.18;;;;;;;;;;4994371;28;20056;-61
2023/06/14 09:59:52;;;;;;;15.35;8.50;;;;;;;;;;5017817;28;20046;-61
2023/06/14 10:02:25;;;;;;;15.43;8.20;;;;;;;;;;5002448;28;20041;-63
2023/06/14 10:04:57;;;;;;;14.23;7.75;;;;;;;;;;5018816;28;20041;-60
2023/06/14 10:07:26;;;;;;;12.32;7.90;;;;;;;;;;5023512;28;20431;-62
2023/06/14 10:09:55;;;;;;;12.82;7.70;;;;;;;;;;5024540;28;20075;-62
2023/06/14 10:12:22;;;;;;;14.05;8.73;;;;;;;;;;5011055;28;20045;-62
2023/06/14 10:14:55;;;;;;;14.00;9.15;;;;;;;;;;4986081;28;20093;-63
2023/06/14 10:17:28;;;;;;;17.17;9.88;;;;;;;;;;5006685;28;20213;-63
2023/06/14 10:20:18;;;;;;;14.68;8.95;;;;;;;;;;5006320;28;20038;-62
2023/06/14 10:22:59;;;;;;;15.25;9.10;;;;;;;;;;4967676;28;20133;-62
2023/06/14 10:25:30;;;;;;;14.98;9.05;;;;;;;;;;5005201;28;20049;-61
2023/06/14 10:28:04;;;;;;;15.73;10.05;;;;;;;;;;5006524;28;20501;-60
2023/06/14 10:30:30;;;;;;;17.17;10.27;;;;;;;;;;5010517;28;20053;-60
2023/06/14 10:33:07;;;;;;;15.98;10.27;;;;;;;;;;5006403;28;20390;-59
2023/06/14 10:35:34;;;;;;;16.52;10.73;;;;;;;;;;5003564;28;20057;-60
2023/06/14 10:38:08;;;;;;;18.35;10.95;;;;;;;;;;5003789;28;20046;-59
2023/06/14 10:40:35;;;;;;;19.42;12.52;;;;;;;;;;5005785;28;20042;-60
2023/06/14 10:43:01;;;;;;;21.08;12.38;;;;;;;;;;5005584;28;20162;-59
2023/06/14 10:45:28;;;;;;;19.95;12.43;;;;;;;;;;5006446;28;20038;-59
2023/06/14 10:47:58;;;;;;;21.10;12.65;;;;;;;;;;5005948;28;20049;-60
2023/06/14 10:50:31;;;;;;;20.65;13.05;;;;;;;;;;5004500;28;20082;-59
2023/06/14 10:52:57;;;;;;;20.83;13.45;;;;;;;;;;5004858;28;20099;-59
2023/06/14 10:55:24;;;;;;;22.20;13.68;;;;;;;;;;5003394;28;20872;-61
2023/06/14 10:57:52;;;;;;;22.05;14.07;;;;;;;;;;5003289;28;20050;-61
2023/06/14 11:00:22;;;;;;;21.27;13.27;;;;;;;;;;5003494;28;20095;-62
2023/06/14 11:03:10;;;;;;;24.83;14.38;;;;;;;;;;5002642;28;20045;-62
2023/06/14 11:05:50;;;;;;;21.52;13.48;;;;;;;;;;4994622;28;20839;-60
2023/06/14 11:08:30;;;;;;;21.05;13.50;;;;;;;;;;5004436;28;20049;-62
2023/06/14 11:11:00;;;;;;;21.58;13.88;;;;;;;;;;5003872;28;20114;-61
2023/06/14 11:13:28;;;;;;;21.85;14.88;;;;;;;;;;4998321;28;20040;-62
2023/06/14 11:15:57;;;;;;;27.10;15.88;;;;;;;;;;5002407;28;20529;-61
2023/06/14 11:18:27;;;;;;;22.98;14.88;;;;;;;;;;5003612;28;20442;-60
2023/06/14 11:20:54;;;;;;;24.58;15.40;;;;;;;;;;5002962;28;20045;-62
2023/06/14 11:23:23;;;;;;;25.77;15.30;;;;;;;;;;5000618;28;20041;-63
2023/06/14 11:25:53;;;;;;;26.67;16.58;;;;;;;;;;5002305;28;20045;-62
2023/06/14 11:28:21;;;;;;;26.58;15.35;;;;;;;;;;5004033;28;20104;-60
2023/06/14 11:31:00;;;;;;;23.75;14.95;;;;;;;;;;4996357;28;20051;-62
2023/06/14 11:33:27;;;;;;;29.60;16.60;;;;;;;;;;5004646;28;20042;-62
2023/06/14 11:35:54;;;;;;;23.92;16.15;;;;;;;;;;5005838;28;20049;-62
2023/06/14 11:38:20;;;;;;;29.48;18.10;;;;;;;;;;5004028;28;20037;-62
2023/06/14 11:40:47;;;;;;;26.02;16.77;;;;;;;;;;5003898;28;20040;-61
2023/06/14 11:43:14;;;;;;;28.52;18.33;;;;;;;;;;5004444;28;20053;-61
2023/06/14 11:45:41;;;;;;;31.60;19.08;;;;;;;;;;5002588;28;20057;-61
2023/06/14 11:48:08;;;;;;;30.92;20.52;;;;;;;;;;5003754;28;20413;-61
2023/06/14 11:50:38;;;;;;;31.77;18.45;;;;;;;;;;5001489;28;20045;-62
2023/06/14 11:53:10;;;;;;;31.48;19.83;;;;;;;;;;5002827;28;20065;-63
2023/06/14 11:55:41;;;;;;;34.10;20.88;;;;;;;;;;5004517;28;20870;-61
2023/06/14 11:58:08;;;;;;;29.88;19.75;;;;;;;;;;5001241;28;20042;-61
2023/06/14 12:00:36;;;;;;;31.13;19.27;;;;;;;;;;5000168;28;20050;-61
2023/06/14 12:03:03;;;;;;;31.25;19.52;;;;;;;;;;5000963;28;20072;-63
2023/06/14 12:05:30;;;;;;;21.88;13.90;;;;;;;;;;5001731;28;20029;-62
2023/06/14 12:08:00;;;;;;;28.83;17.25;;;;;;;;;;5003770;28;20074;-64
2023/06/14 12:10:28;;;;;;;24.30;15.55;;;;;;;;;;5002018;28;20033;-64
2023/06/14 12:12:58;;;;;;;24.60;14.38;;;;;;;;;;5006328;28;20045;-65
2023/06/14 12:15:25;;;;;;;21.48;13.45;;;;;;;;;;5023400;28;20100;-64
2023/06/14 12:17:52;;;;;;;24.67;13.45;;;;;;;;;;5020931;28;20037;-62
2023/06/14 12:20:21;;;;;;;19.98;12.00;;;;;;;;;;5019525;28;20037;-62
2023/06/14 12:22:57;;;;;;;19.50;11.38;;;;;;;;;;5018966;28;20041;-64
2023/06/14 12:25:26;;;;;;;16.05;9.25;;;;;;;;;;5021424;28;20374;-65
2023/06/14 12:27:54;;;;;;;19.77;11.00;;;;;;;;;;5024945;28;20054;-63
2023/06/14 12:30:21;;;;;;;16.63;9.68;;;;;;;;;;5020665;28;20035;-65
2023/06/14 12:32:48;;;;;;;15.18;9.02;;;;;;;;;;5022487;28;20051;-66
2023/06/14 12:35:15;;;;;;;17.75;9.13;;;;;;;;;;5026142;28;20040;-65
2023/06/14 12:37:42;;;;;;;15.70;9.07;;;;;;;;;;5018752;28;20047;-65
2023/06/14 12:40:11;;;;;;;16.08;10.15;;;;;;;;;;5022525;28;20033;-65
2023/06/14 12:42:38;;;;;;;12.65;6.45;;;;;;;;;;5027118;28;20120;-65
2023/06/14 12:45:05;;;;;;;12.20;6.88;;;;;;;;;;5023092;28;20037;-65
2023/06/14 12:47:32;;;;;;;15.15;6.72;;;;;;;;;;5006342;28;20049;-66
2023/06/14 12:49:58;;;;;;;13.27;7.25;;;;;;;;;;5023543;28;20501;-66
2023/06/14 12:52:25;;;;;;;15.10;7.70;;;;;;;;;;4996540;28;20049;-65
2023/06/14 12:54:52;;;;;;;12.10;6.88;;;;;;;;;;5023217;28;20064;-65
2023/06/14 12:57:18;;;;;;;11.95;6.88;;;;;;;;;;5023850;28;20042;-66
2023/06/14 12:59:45;;;;;;;10.10;5.25;;;;;;;;;;4999413;28;20045;-66
2023/06/14 13:02:19;;;;;;;8.23;4.72;;;;;;;;;;5006594;28;20041;-66
2023/06/14 13:04:45;;;;;;;8.55;4.45;;;;;;;;;;5021968;28;20124;-66
2023/06/14 13:07:12;;;;;;;4.47;2.50;;;;;;;;;;5024740;28;20078;-67
2023/06/14 13:09:39;;;;;;;5.65;2.78;;;;;;;;;;5022205;28;20490;-67
2023/06/14 13:12:06;;;;;;;5.13;2.28;;;;;;;;;;5023240;28;20052;-66
2023/06/14 13:14:33;;;;;;;6.32;2.72;;;;;;;;;;5025160;28;20129;-65
2023/06/14 13:17:00;;;;;;;7.32;2.67;;;;;;;;;;5023743;28;20041;-65
2023/06/14 13:19:26;;;;;;;9.02;2.17;;;;;;;;;;5024183;28;20609;-66
2023/06/14 13:21:54;;;;;;;6.13;2.42;;;;;;;;;;5024609;28;20042;-67
2023/06/14 13:24:22;;;;;;;5.35;2.13;;;;;;;;;;5024555;28;20672;-66
2023/06/14 13:26:48;;;;;;;5.00;1.83;;;;;;;;;;5027505;28;20537;-66
2023/06/14 13:29:15;;;;;;;4.72;1.90;;;;;;;;;;5023875;28;20613;-66
2023/06/14 13:31:42;;;;;;;6.70;1.98;;;;;;;;;;5026039;28;20038;-67
2023/06/14 13:34:09;;;;;;;4.10;1.67;;;;;;;;;;5010100;28;20037;-66
2023/06/14 13:36:35;;;;;;;3.67;1.70;;;;;;;;;;5007813;28;20033;-67
2023/06/14 13:39:02;;;;;;;3.28;1.50;;;;;;;;;;5006952;28;20049;-65
2023/06/14 13:41:31;;;;;;;3.28;1.25;;;;;;;;;;5030365;28;20045;-65
2023/06/14 13:43:58;;;;;;;2.55;1.13;;;;;;;;;;5030828;28;20897;-66
2023/06/14 13:46:25;;;;;;;3.63;1.38;;;;;;;;;;5031080;28;20050;-65
2023/06/14 13:48:52;;;;;;;3.28;1.25;;;;;;;;;;5031627;28;21888;-66
2023/06/14 13:51:20;;;;;;;2.35;1.08;;;;;;;;;;5009666;28;20073;-68
2023/06/14 13:53:47;;;;;;;4.43;1.38;;;;;;;;;;5012401;28;20691;-66
2023/06/14 13:56:14;;;;;;;3.33;1.45;;;;;;;;;;5030194;28;20047;-65
2023/06/14 13:58:41;;;;;;;3.30;1.30;;;;;;;;;;5028516;28;20045;-66
2023/06/14 14:01:08;;;;;;;2.80;1.30;;;;;;;;;;5030624;28;20091;-65
2023/06/14 14:03:35;;;;;;;2.83;0.95;;;;;;;;;;5010959;28;20208;-66
2023/06/14 14:06:05;;;;;;;3.03;1.27;;;;;;;;;;5030874;28;20038;-67
2023/06/14 14:08:32;;;;;;;4.90;1.00;;;;;;;;;;5004698;28;20418;-66
2023/06/14 14:10:59;;;;;;;2.67;1.15;;;;;;;;;;5031327;28;20118;-66
2023/06/14 14:13:26;;;;;;;2.75;1.30;;;;;;;;;;5012398;28;20038;-66
2023/06/14 14:15:53;;;;;;;4.38;1.30;;;;;;;;;;5005528;28;20049;-67
2023/06/14 14:18:20;;;;;;;2.90;1.10;;;;;;;;;;5029422;28;20101;-67
2023/06/14 14:20:47;;;;;;;4.05;1.30;;;;;;;;;;5028660;28;20041;-66
2023/06/14 14:23:14;;;;;;;3.53;1.10;;;;;;;;;;5025403;28;20025;-66
2023/06/14 14:25:41;;;;;;;3.25;1.25;;;;;;;;;;5029576;28;20048;-67
2023/06/14 14:28:11;;;;;;;3.83;1.17;;;;;;;;;;5032372;28;20048;-68
2023/06/14 14:30:39;;;;;;;2.67;1.30;;;;;;;;;;5032283;28;20102;-66
2023/06/14 14:33:06;;;;;;;5.20;1.58;;;;;;;;;;5032167;28;20086;-65
2023/06/14 14:35:33;;;;;;;3.97;1.73;;;;;;;;;;5028226;28;20072;-66
2023/06/14 14:38:00;;;;;;;2.90;1.17;;;;;;;;;;5022674;28;20037;-65
2023/06/14 14:40:27;;;;;;;3.30;1.55;;;;;;;;;;5024583;28;20060;-65